createdAt,value
2018-05-31T00:04:34.517Z,9.67
2018-05-31T00:09:37.012Z,9.40
2018-05-31T00:14:39.575Z,10.20
2018-05-31T00:19:42.135Z,9.77
2018-05-31T00:24:44.683Z,9.70
2018-05-31T00:29:47.207Z,9.83
2018-05-31T00:34:49.695Z,8.80
2018-05-31T00:39:52.175Z,9.03
2018-05-31T00:44:54.668Z,9.67
2018-05-31T00:49:57.144Z,9.00
2018-05-31T00:54:59.631Z,10.90
2018-05-31T01:00:02.112Z,10.70
2018-05-31T01:05:04.630Z,9.43
2018-05-31T01:10:07.112Z,11.17
2018-05-31T01:15:09.588Z,9.37
2018-05-31T01:20:12.072Z,9.73
2018-05-31T01:25:14.556Z,9.50
2018-05-31T01:30:17.817Z,9.23
2018-05-31T01:35:20.316Z,11.03
2018-05-31T01:40:22.800Z,10.40
2018-05-31T01:45:25.284Z,10.10
2018-05-31T01:50:27.779Z,12.23
2018-05-31T01:55:30.272Z,11.37
2018-05-31T02:00:32.756Z,10.60
2018-05-31T02:05:35.236Z,9.60
2018-05-31T02:10:37.721Z,10.10
2018-05-31T02:15:40.227Z,9.23
2018-05-31T02:20:42.713Z,10.77
2018-05-31T02:25:45.199Z,10.23
2018-05-31T02:30:47.689Z,14.90
2018-05-31T02:35:50.177Z,9.70
2018-05-31T02:40:52.657Z,9.60
2018-05-31T02:45:55.908Z,10.33
2018-05-31T02:50:58.401Z,10.53
2018-05-31T02:56:00.885Z,10.80
2018-05-31T03:01:03.379Z,13.03
2018-05-31T03:06:05.873Z,11.97
2018-05-31T03:11:08.357Z,10.60
2018-05-31T03:16:10.853Z,11.27
2018-05-31T03:21:13.356Z,14.17
2018-05-31T03:26:16.615Z,10.97
2018-05-31T03:31:19.100Z,10.83
2018-05-31T03:36:21.584Z,11.07
2018-05-31T03:41:24.076Z,11.17
2018-05-31T03:46:26.564Z,11.47
2018-05-31T03:51:29.051Z,13.10
2018-05-31T03:56:31.539Z,12.37
2018-05-31T04:01:34.044Z,11.60
2018-05-31T04:06:36.532Z,10.73
2018-05-31T04:11:39.024Z,11.97
2018-05-31T04:16:41.512Z,12.50
2018-05-31T04:21:44.000Z,11.93
2018-05-31T04:26:47.340Z,13.10
2018-05-31T04:31:49.828Z,12.00
2018-05-31T04:36:52.317Z,11.30
2018-05-31T04:41:55.580Z,11.07
2018-05-31T04:46:58.068Z,11.97
2018-05-31T04:52:00.560Z,13.00
2018-05-31T04:57:03.043Z,11.97
2018-05-31T05:02:05.531Z,11.17
2018-05-31T05:07:08.784Z,13.63
2018-05-31T05:12:11.277Z,11.63
2018-05-31T05:17:13.768Z,13.93
2018-05-31T05:22:16.276Z,12.50
2018-05-31T05:27:19.104Z,13.70
2018-05-31T05:32:22.359Z,12.93
2018-05-31T05:37:24.868Z,16.60
2018-05-31T05:42:27.368Z,11.50
2018-05-31T05:47:29.872Z,15.97
2018-05-31T05:52:32.364Z,11.63
2018-05-31T05:57:34.847Z,13.17
2018-05-31T06:02:37.332Z,14.13
2018-05-31T06:07:39.836Z,13.20
2018-05-31T06:12:42.339Z,11.40
2018-05-31T06:17:44.839Z,11.33
2018-05-31T06:22:47.336Z,11.73
2018-05-31T06:27:49.842Z,12.57
2018-05-31T06:32:53.108Z,13.63
2018-05-31T06:37:55.608Z,11.10
2018-05-31T06:42:58.271Z,14.13
2018-05-31T06:48:00.824Z,16.03
2018-05-31T06:53:03.320Z,11.93
2018-05-31T06:58:05.832Z,13.03
2018-05-31T07:03:09.100Z,17.03
2018-05-31T07:08:11.619Z,21.53
2018-05-31T07:13:14.883Z,12.43
2018-05-31T07:18:17.404Z,12.53
2018-05-31T07:23:19.901Z,17.73
2018-05-31T07:28:22.400Z,14.10
2018-05-31T07:33:24.905Z,24.90
2018-05-31T07:38:28.184Z,15.97
2018-05-31T07:43:30.685Z,14.67
2018-05-31T07:48:33.189Z,14.20
2018-05-31T07:53:35.676Z,11.43
2018-05-31T07:58:38.236Z,13.47
2018-05-31T08:03:40.724Z,20.43
2018-05-31T08:08:43.236Z,13.63
2018-05-31T08:13:45.736Z,14.40
2018-05-31T08:18:48.236Z,20.50
2018-05-31T08:23:50.740Z,19.63
2018-05-31T08:28:53.228Z,16.83
2018-05-31T08:33:55.732Z,21.63
2018-05-31T08:38:58.233Z,13.33
2018-05-31T08:44:01.495Z,16.13
2018-05-31T08:49:04.009Z,16.90
2018-05-31T08:54:06.517Z,20.33
2018-05-31T08:59:09.022Z,19.23
2018-05-31T09:04:11.511Z,16.93
2018-05-31T09:09:14.796Z,12.73
2018-05-31T09:14:17.322Z,14.40
2018-05-31T09:19:20.612Z,13.83
2018-05-31T09:24:23.101Z,12.87
2018-05-31T09:29:25.641Z,17.37
2018-05-31T09:34:28.084Z,11.47
2018-05-31T09:39:30.576Z,10.67
2018-05-31T09:44:33.096Z,16.20
2018-05-31T09:49:36.361Z,14.83
2018-05-31T09:54:38.886Z,15.10
2018-05-31T09:59:41.373Z,11.87
2018-05-31T10:04:43.876Z,13.30
2018-05-31T10:09:46.391Z,15.87
2018-05-31T10:14:49.640Z,13.73
2018-05-31T10:19:52.137Z,15.63
2018-05-31T10:24:54.640Z,16.80
2018-05-31T10:29:57.443Z,11.57
2018-05-31T10:34:59.939Z,13.13
2018-05-31T10:40:02.448Z,11.83
2018-05-31T10:45:04.951Z,16.93
2018-05-31T10:50:08.227Z,14.30
2018-05-31T10:55:10.741Z,12.03
2018-05-31T11:00:13.244Z,13.13
2018-05-31T11:05:15.736Z,12.57
2018-05-31T11:10:18.228Z,12.40
2018-05-31T11:15:20.736Z,13.50
2018-05-31T11:20:23.992Z,13.73
2018-05-31T11:25:26.496Z,15.67
2018-05-31T11:30:28.999Z,13.27
2018-05-31T11:35:31.480Z,13.63
2018-05-31T11:40:33.983Z,12.60
2018-05-31T11:45:36.490Z,13.07
2018-05-31T11:50:38.980Z,17.33
2018-05-31T11:55:41.494Z,15.83
2018-05-31T12:00:44.756Z,15.07
2018-05-31T12:05:47.256Z,20.07
2018-05-31T12:10:49.826Z,22.73
2018-05-31T12:15:52.256Z,14.87
2018-05-31T12:20:54.756Z,22.03
2018-05-31T12:25:57.247Z,17.10
2018-05-31T12:30:59.748Z,12.70
2018-05-31T12:36:02.255Z,14.37
2018-05-31T12:41:05.512Z,16.00
2018-05-31T12:46:07.999Z,22.37
2018-05-31T12:51:10.532Z,14.67
2018-05-31T12:56:13.020Z,10.53
2018-05-31T13:01:15.511Z,13.20
2018-05-31T13:06:18.011Z,16.33
2018-05-31T13:11:20.491Z,11.90
2018-05-31T13:16:23.025Z,12.57
2018-05-31T13:21:26.289Z,14.37
2018-05-31T13:26:28.804Z,11.07
2018-05-31T13:31:31.304Z,11.23
2018-05-31T13:36:33.792Z,8.50
2018-05-31T13:41:36.289Z,10.23
2018-05-31T13:46:38.783Z,10.00
2018-05-31T13:51:41.295Z,9.77
2018-05-31T13:56:44.574Z,11.77
2018-05-31T14:01:47.053Z,12.43
2018-05-31T14:06:49.568Z,10.77
2018-05-31T14:11:52.060Z,8.23
2018-05-31T14:16:54.549Z,8.83
2018-05-31T14:21:57.036Z,9.70
2018-05-31T14:26:59.554Z,7.80
2018-05-31T14:32:02.080Z,6.73
2018-05-31T14:37:04.573Z,9.23
2018-05-31T14:42:07.064Z,10.53
2018-05-31T14:47:09.559Z,8.30
2018-05-31T14:52:12.050Z,6.70
2018-05-31T14:57:14.523Z,12.00
2018-05-31T15:02:17.776Z,5.77
2018-05-31T15:07:20.271Z,5.60
2018-05-31T15:12:22.764Z,9.37
2018-05-31T15:17:25.250Z,6.10
2018-05-31T15:22:27.741Z,7.87
2018-05-31T15:27:30.234Z,6.77
2018-05-31T15:32:32.752Z,8.60
2018-05-31T15:37:35.248Z,13.83
2018-05-31T15:42:37.734Z,17.63
2018-05-31T15:47:40.207Z,7.40
2018-05-31T15:52:42.707Z,7.63
2018-05-31T15:57:45.216Z,7.10
2018-05-31T16:02:47.716Z,13.93
2018-05-31T16:07:50.212Z,10.73
2018-05-31T16:12:52.696Z,8.53
2018-05-31T16:17:55.221Z,10.63
2018-05-31T16:22:58.459Z,20.67
2018-05-31T16:28:00.960Z,12.33
2018-05-31T16:33:03.461Z,7.63
2018-05-31T16:38:05.960Z,8.00
2018-05-31T16:43:08.457Z,10.10
2018-05-31T16:48:10.937Z,5.83
2018-05-31T16:53:13.431Z,5.70
2018-05-31T16:58:15.931Z,7.30
2018-05-31T17:03:18.420Z,33.37
2018-05-31T17:08:20.911Z,32.00
2018-05-31T17:13:23.404Z,12.80
2018-05-31T17:18:25.884Z,4.10
2018-05-31T17:23:28.397Z,4.63
2018-05-31T17:28:30.997Z,7.13
2018-05-31T17:33:33.512Z,6.10
2018-05-31T17:38:36.008Z,4.53
2018-05-31T17:43:38.532Z,7.87
2018-05-31T17:48:41.788Z,4.83
2018-05-31T17:53:44.292Z,4.80
2018-05-31T17:58:46.784Z,10.43
2018-05-31T18:03:49.300Z,4.97
2018-05-31T18:08:51.810Z,8.53
2018-05-31T18:13:54.298Z,4.80
2018-05-31T18:18:56.844Z,5.90
2018-05-31T18:23:59.326Z,7.23
2018-05-31T18:29:01.812Z,5.87
2018-05-31T18:34:04.349Z,7.57
2018-05-31T18:39:06.859Z,6.93
2018-05-31T18:44:09.414Z,9.50
2018-05-31T18:49:12.043Z,6.57
2018-05-31T18:54:14.547Z,6.10
2018-05-31T18:59:17.038Z,5.70
2018-05-31T19:04:19.533Z,4.97
2018-05-31T19:09:28.420Z,8.60
2018-05-31T19:14:30.967Z,9.67
2018-05-31T19:19:39.988Z,6.10
2018-05-31T19:24:48.095Z,7.50
2018-05-31T19:29:50.568Z,7.03
2018-05-31T19:34:53.069Z,10.70
2018-05-31T19:39:55.560Z,7.20
2018-05-31T19:44:58.057Z,8.70
2018-05-31T19:50:00.544Z,10.57
2018-05-31T19:55:03.056Z,11.00
2018-05-31T20:00:11.343Z,17.30
2018-05-31T20:05:13.846Z,19.70
2018-05-31T20:10:16.340Z,11.60
2018-05-31T20:15:18.843Z,12.83
2018-05-31T20:20:21.332Z,9.10
2018-05-31T20:25:23.856Z,12.10
2018-05-31T20:30:26.352Z,8.83
2018-05-31T20:35:28.933Z,13.00
2018-05-31T20:40:31.424Z,13.87
2018-05-31T20:45:33.900Z,9.67
2018-05-31T20:50:36.389Z,10.83
2018-05-31T20:55:38.924Z,11.50
2018-05-31T21:00:41.432Z,9.97
2018-05-31T21:05:43.932Z,13.90
2018-05-31T21:10:46.429Z,9.60
2018-05-31T21:15:48.924Z,16.03
2018-05-31T21:20:51.455Z,9.03
2018-05-31T21:25:53.940Z,14.53
2018-05-31T21:30:57.195Z,8.40
2018-05-31T21:35:59.696Z,7.00
2018-05-31T21:41:02.195Z,8.17
2018-05-31T21:46:04.675Z,8.83
2018-05-31T21:51:07.169Z,9.07
2018-05-31T21:56:09.668Z,7.43
2018-05-31T22:01:12.188Z,7.80
2018-05-31T22:06:14.681Z,7.93
2018-05-31T22:11:17.180Z,8.50
2018-05-31T22:16:20.428Z,7.77
2018-05-31T22:21:22.945Z,6.27
2018-05-31T22:26:25.437Z,8.90
2018-05-31T22:31:27.918Z,8.23
2018-05-31T22:36:30.435Z,8.20
2018-05-31T22:41:32.940Z,7.80
2018-05-31T22:46:35.445Z,8.40
2018-05-31T22:51:37.927Z,8.93
2018-05-31T22:56:40.432Z,7.20
2018-05-31T23:01:42.957Z,7.60
2018-05-31T23:06:45.449Z,9.90
2018-05-31T23:11:47.940Z,9.00
2018-05-31T23:16:50.440Z,9.13
2018-05-31T23:21:52.959Z,9.70
2018-05-31T23:26:55.464Z,9.03
2018-05-31T23:31:57.946Z,11.00
2018-05-31T23:37:00.448Z,10.40
2018-05-31T23:42:02.937Z,9.77
2018-05-31T23:47:05.424Z,8.20
2018-05-31T23:52:07.919Z,7.43
2018-05-31T23:57:10.421Z,7.40
